Time;durP1;ratioP1;P1;durP2;ratioP2;P2;SDS_P1;SDS_P2;PMS_P1;PMS_P2;Temp;Humidity;BMP_temperature;BMP_pressure;BME280_temperature;BME280_humidity;BME280_pressure;Samples;Min_cycle;Max_cycle;Signal;HPM_P1;HPM_P2
2023/07/28 00:00:12;;;;;;;1.30;1.20;;;24.10;95.00;;;;;;4936719;29;20538;-92
2023/07/28 00:02:39;;;;;;;1.30;1.10;;;24.10;94.90;;;;;;4936682;29;20873;-92
2023/07/28 00:05:07;;;;;;;1.00;0.80;;;24.10;94.90;;;;;;4936542;29;20484;-92
2023/07/28 00:07:36;;;;;;;1.40;0.90;;;24.10;95.10;;;;;;4936008;29;20487;-92
2023/07/28 00:10:03;;;;;;;1.30;1.20;;;24.10;95.00;;;;;;4936233;29;20504;-93
2023/07/28 00:12:30;;;;;;;1.10;0.90;;;24.10;95.00;;;;;;4936056;29;20456;-92
2023/07/28 00:14:58;;;;;;;1.33;1.00;;;24.10;95.00;;;;;;4936016;29;21033;-92
2023/07/28 00:17:25;;;;;;;1.70;1.10;;;24.10;95.10;;;;;;4936738;29;20460;-92
2023/07/28 00:19:52;;;;;;;1.33;0.90;;;24.10;95.10;;;;;;4938883;29;20933;-92
2023/07/28 00:22:19;;;;;;;1.10;1.00;;;24.10;95.10;;;;;;4939756;29;20498;-92
2023/07/28 00:24:48;;;;;;;1.60;1.30;;;24.10;95.10;;;;;;4939552;29;20835;-93
2023/07/28 00:27:15;;;;;;;1.10;0.90;;;24.10;95.10;;;;;;4939631;29;20508;-93
2023/07/28 00:29:41;;;;;;;1.10;0.90;;;24.10;95.20;;;;;;4939790;29;20454;-93
2023/07/28 00:32:09;;;;;;;1.10;1.00;;;24.10;95.20;;;;;;4939651;29;20491;-93
2023/07/28 00:34:36;;;;;;;1.17;0.90;;;24.10;95.20;;;;;;4939656;29;20547;-94
2023/07/28 00:37:03;;;;;;;1.00;0.80;;;24.10;95.20;;;;;;4939612;29;20940;-93
2023/07/28 00:39:30;;;;;;;1.10;0.93;;;24.10;95.30;;;;;;4939755;29;20991;-93
2023/07/28 00:41:58;;;;;;;1.00;0.90;;;24.10;95.10;;;;;;4940098;29;20798;-93
2023/07/28 00:44:25;;;;;;;1.20;1.00;;;24.10;95.10;;;;;;4939567;29;21005;-92
2023/07/28 00:46:52;;;;;;;1.10;0.90;;;24.10;95.20;;;;;;4939591;29;20470;-94
2023/07/28 00:49:19;;;;;;;1.17;1.07;;;24.10;95.10;;;;;;4939261;29;20916;-93
2023/07/28 00:51:47;;;;;;;1.40;1.03;;;24.10;95.10;;;;;;4938982;29;20516;-92
2023/07/28 00:54:14;;;;;;;1.53;0.97;;;24.10;95.10;;;;;;4939111;29;21006;-93
2023/07/28 00:56:41;;;;;;;1.20;1.10;;;24.10;95.10;;;;;;4939244;29;20476;-93
2023/07/28 00:59:09;;;;;;;1.10;0.90;;;24.10;95.00;;;;;;4939849;29;20491;-93
2023/07/28 01:01:36;;;;;;;1.07;0.97;;;24.10;95.00;;;;;;4939225;29;20456;-93
2023/07/28 01:04:03;;;;;;;1.00;0.90;;;24.00;94.90;;;;;;4939262;29;20487;-93
2023/07/28 01:06:40;;;;;;;1.00;0.80;;;24.10;95.00;;;;;;4938860;29;20775;-93
2023/07/28 01:09:13;;;;;;;1.00;0.90;;;24.10;95.00;;;;;;4939856;29;20466;-93
2023/07/28 01:11:54;;;;;;;1.03;0.93;;;24.00;95.00;;;;;;4939003;29;20593;-94
2023/07/28 01:14:22;;;;;;;1.20;1.00;;;24.10;95.00;;;;;;4939454;29;20513;-93
2023/07/28 01:16:49;;;;;;;1.00;0.90;;;24.00;95.00;;;;;;4938767;29;20549;-93
2023/07/28 01:19:18;;;;;;;1.10;1.00;;;24.00;95.00;;;;;;4938916;29;20538;-93
2023/07/28 01:21:48;;;;;;;1.00;0.90;;;24.00;95.00;;;;;;4938858;29;20460;-92
2023/07/28 01:24:21;;;;;;;1.20;0.90;;;24.00;95.00;;;;;;4938738;29;20460;-92
2023/07/28 01:26:51;;;;;;;1.30;1.03;;;24.00;95.00;;;;;;4938656;29;20476;-92
2023/07/28 01:29:19;;;;;;;1.10;0.97;;;24.00;95.00;;;;;;4937650;29;20986;-92
2023/07/28 01:31:47;;;;;;;1.00;0.87;;;24.00;94.90;;;;;;4938358;29;20502;-93
2023/07/28 01:34:15;;;;;;;1.27;1.17;;;24.00;95.10;;;;;;4938485;29;20548;-93
2023/07/28 01:36:42;;;;;;;1.10;1.00;;;24.00;95.10;;;;;;4939322;29;20530;-94
2023/07/28 01:39:09;;;;;;;1.10;0.90;;;24.00;95.00;;;;;;4938350;29;20467;-93
2023/07/28 01:41:36;;;;;;;1.10;1.00;;;24.00;94.90;;;;;;4938548;29;20559;-93
2023/07/28 01:44:05;;;;;;;1.20;1.10;;;24.00;94.90;;;;;;4938649;29;20468;-94
2023/07/28 01:46:32;;;;;;;2.03;1.10;;;24.00;94.90;;;;;;4939018;29;20787;-92
2023/07/28 01:48:59;;;;;;;1.10;0.90;;;24.00;95.00;;;;;;4938355;29;20476;-93
2023/07/28 01:51:25;;;;;;;1.20;1.03;;;24.00;95.00;;;;;;4937929;29;20586;-92
2023/07/28 01:53:52;;;;;;;1.10;1.00;;;24.00;95.30;;;;;;4938482;29;20538;-92
2023/07/28 01:56:19;;;;;;;1.00;0.90;;;24.10;95.00;;;;;;4937751;29;20558;-93
2023/07/28 01:58:46;;;;;;;1.07;0.90;;;24.00;94.90;;;;;;4938638;29;20515;-92
2023/07/28 02:01:15;;;;;;;1.10;1.00;;;24.00;94.80;;;;;;4938142;29;20754;-93
2023/07/28 02:03:42;;;;;;;1.23;1.13;;;24.00;94.80;;;;;;4938025;29;20455;-93
2023/07/28 02:06:09;;;;;;;1.07;0.97;;;23.90;94.70;;;;;;4937661;29;20487;-93
2023/07/28 02:08:36;;;;;;;1.23;1.13;;;24.00;94.80;;;;;;4938175;29;20550;-92
2023/07/28 02:11:03;;;;;;;0.93;0.77;;;24.00;94.70;;;;;;4938622;29;20978;-93
2023/07/28 02:13:30;;;;;;;1.20;1.10;;;24.00;94.70;;;;;;4937878;29;20950;-94
2023/07/28 02:15:56;;;;;;;1.10;0.93;;;24.00;94.70;;;;;;4937796;29;20463;-92
2023/07/28 02:18:25;;;;;;;1.10;0.90;;;23.90;94.60;;;;;;4938311;29;20545;-92
2023/07/28 02:20:52;;;;;;;1.20;1.10;;;24.00;94.70;;;;;;4937893;29;20547;-93
2023/07/28 02:23:19;;;;;;;1.13;1.03;;;24.00;94.70;;;;;;4937366;29;20530;-92
2023/07/28 02:25:46;;;;;;;1.10;1.00;;;24.00;94.60;;;;;;4937526;29;20452;-92
2023/07/28 02:28:13;;;;;;;1.10;0.90;;;24.00;94.70;;;;;;4938396;29;20875;-93
2023/07/28 02:30:40;;;;;;;1.53;1.00;;;24.00;94.60;;;;;;4937499;29;20569;-93
2023/07/28 02:33:07;;;;;;;1.10;0.90;;;24.00;94.70;;;;;;4937473;29;20572;-93
2023/07/28 02:35:36;;;;;;;1.33;1.10;;;24.00;94.70;;;;;;4937433;29;20487;-93
2023/07/28 02:38:03;;;;;;;1.20;1.10;;;24.00;94.80;;;;;;4937451;29;20789;-92
2023/07/28 02:40:30;;;;;;;1.10;1.00;;;24.00;94.90;;;;;;4937244;29;20459;-92
2023/07/28 02:42:58;;;;;;;1.17;1.07;;;24.00;94.80;;;;;;4937297;29;20460;-93
2023/07/28 02:45:25;;;;;;;1.10;0.90;;;24.00;94.90;;;;;;4937299;29;20459;-93
2023/07/28 02:47:52;;;;;;;1.13;1.03;;;24.00;94.80;;;;;;4937992;29;20453;-92
2023/07/28 02:50:19;;;;;;;1.00;0.90;;;24.00;94.80;;;;;;4937116;29;20539;-93
2023/07/28 02:52:48;;;;;;;1.00;0.90;;;24.00;94.80;;;;;;4937407;29;20860;-92
2023/07/28 02:55:15;;;;;;;1.00;0.90;;;24.00;94.80;;;;;;4937145;29;20487;-94
2023/07/28 02:57:42;;;;;;;1.00;0.90;;;23.90;94.70;;;;;;4937048;29;20471;-94
2023/07/28 03:00:11;;;;;;;1.20;1.10;;;23.90;94.70;;;;;;4937097;29;20530;-93
2023/07/28 03:02:38;;;;;;;1.10;1.00;;;24.00;94.70;;;;;;4936940;29;20447;-93
2023/07/28 03:05:06;;;;;;;1.00;0.90;;;24.00;94.80;;;;;;4936802;29;20542;-93
2023/07/28 03:07:33;;;;;;;1.20;1.10;;;24.00;94.70;;;;;;4936811;29;20583;-92
2023/07/28 03:10:01;;;;;;;1.20;0.97;;;24.00;94.80;;;;;;4937003;29;20817;-92
2023/07/28 03:12:28;;;;;;;1.03;0.93;;;23.90;94.80;;;;;;4936237;29;21061;-92
2023/07/28 03:14:55;;;;;;;1.40;1.30;;;23.90;94.70;;;;;;4936983;29;20451;-92
2023/07/28 03:17:22;;;;;;;1.10;0.97;;;24.00;94.80;;;;;;4937055;29;20459;-93
2023/07/28 03:19:49;;;;;;;1.07;0.93;;;24.00;94.80;;;;;;4936810;29;20566;-92
2023/07/28 03:22:16;;;;;;;1.07;0.97;;;24.00;94.80;;;;;;4937364;29;20489;-92
2023/07/28 03:24:46;;;;;;;1.10;1.00;;;23.90;94.80;;;;;;4937520;29;20925;-92
2023/07/28 03:27:14;;;;;;;1.00;0.90;;;24.00;94.80;;;;;;4937003;29;20993;-92
2023/07/28 03:29:41;;;;;;;1.27;1.17;;;24.00;94.80;;;;;;4937324;29;20458;-93
2023/07/28 03:32:08;;;;;;;1.20;1.10;;;24.00;94.70;;;;;;4935813;29;21045;-92
2023/07/28 03:34:35;;;;;;;1.10;1.00;;;24.00;94.70;;;;;;4937295;29;20547;-92
2023/07/28 03:37:03;;;;;;;1.10;1.00;;;24.00;94.80;;;;;;4935976;29;20479;-92
2023/07/28 03:39:31;;;;;;;2.10;0.83;;;23.90;94.80;;;;;;4937181;29;20450;-92
2023/07/28 03:41:58;;;;;;;1.10;0.90;;;24.00;94.90;;;;;;4936396;29;20460;-92
2023/07/28 03:44:26;;;;;;;1.27;1.00;;;24.00;94.90;;;;;;4937323;29;20923;-92
2023/07/28 03:46:54;;;;;;;1.13;1.03;;;24.00;94.90;;;;;;4936562;29;20540;-92
2023/07/28 03:49:21;;;;;;;1.00;0.90;;;24.00;94.90;;;;;;4936982;29;20857;-92
2023/07/28 03:55:09;;;;;;;1.10;0.90;;;24.00;95.00;;;;;;4940090;29;20906;-93
2023/07/28 03:57:36;;;;;;;1.10;1.00;;;23.90;95.00;;;;;;4940229;29;20566;-92
2023/07/28 04:00:07;;;;;;;1.07;0.90;;;23.90;95.00;;;;;;4940339;29;20537;-92
2023/07/28 04:02:34;;;;;;;1.90;1.10;;;23.90;94.90;;;;;;4940827;29;20534;-92
2023/07/28 04:05:01;;;;;;;1.27;1.17;;;23.90;94.90;;;;;;4939934;29;20494;-93
2023/07/28 04:07:28;;;;;;;1.17;1.07;;;23.90;94.90;;;;;;4940067;29;20549;-92
2023/07/28 04:09:55;;;;;;;1.00;0.90;;;23.90;94.90;;;;;;4940754;29;20449;-93
2023/07/28 04:12:21;;;;;;;1.10;1.00;;;23.90;94.90;;;;;;4940112;29;20973;-92
2023/07/28 04:14:48;;;;;;;1.00;0.90;;;23.90;94.90;;;;;;4939862;29;20449;-92
2023/07/28 04:17:17;;;;;;;1.10;0.93;;;24.10;94.90;;;;;;4940146;29;20537;-93
2023/07/28 04:19:43;;;;;;;1.33;1.23;;;23.90;94.80;;;;;;4940443;29;20961;-93
2023/07/28 04:22:10;;;;;;;1.10;1.00;;;24.00;94.80;;;;;;4940479;29;20839;-92
2023/07/28 04:24:37;;;;;;;1.10;0.90;;;24.00;94.90;;;;;;4940385;29;20482;-93
2023/07/28 04:27:05;;;;;;;1.20;1.10;;;24.00;95.20;;;;;;4939552;29;20554;-92
2023/07/28 04:29:32;;;;;;;1.20;1.10;;;24.00;94.90;;;;;;4939771;29;20479;-92
2023/07/28 04:31:59;;;;;;;1.10;0.93;;;23.90;94.90;;;;;;4939450;29;20492;-92
2023/07/28 04:34:27;;;;;;;1.20;1.10;;;23.90;94.90;;;;;;4940616;29;20484;-93
2023/07/28 04:36:54;;;;;;;1.20;1.00;;;23.90;94.90;;;;;;4940411;29;20479;-92
2023/07/28 04:39:22;;;;;;;1.10;1.00;;;23.90;94.80;;;;;;4940334;29;20852;-92
2023/07/28 04:41:49;;;;;;;1.27;1.17;;;23.90;94.80;;;;;;4939935;29;20469;-93
2023/07/28 04:44:16;;;;;;;1.10;1.00;;;23.90;94.90;;;;;;4939946;29;20460;-92
2023/07/28 04:46:43;;;;;;;1.03;0.90;;;23.90;94.80;;;;;;4939630;29;20462;-92
2023/07/28 04:49:10;;;;;;;1.23;1.13;;;23.90;94.80;;;;;;4939125;29;20454;-92
2023/07/28 04:51:38;;;;;;;1.20;1.10;;;24.00;94.80;;;;;;4939183;29;20573;-92
2023/07/28 04:54:05;;;;;;;1.13;1.03;;;23.90;94.90;;;;;;4939045;29;20479;-92
2023/07/28 04:56:32;;;;;;;1.10;1.00;;;24.00;95.00;;;;;;4939711;29;20481;-93
2023/07/28 04:58:59;;;;;;;1.10;0.90;;;24.00;95.00;;;;;;4939295;29;20546;-92
2023/07/28 05:01:27;;;;;;;1.60;1.50;;;24.00;95.10;;;;;;4938818;29;20868;-92
2023/07/28 05:03:53;;;;;;;1.23;1.13;;;24.00;95.20;;;;;;4938573;29;20499;-92
2023/07/28 05:06:20;;;;;;;1.10;0.97;;;24.00;95.20;;;;;;4939652;29;20451;-92
2023/07/28 05:08:49;;;;;;;1.13;1.00;;;23.90;95.10;;;;;;4938408;29;20457;-92
2023/07/28 05:11:16;;;;;;;1.00;0.80;;;24.00;95.10;;;;;;4939248;29;20455;-93
2023/07/28 05:13:44;;;;;;;1.27;1.17;;;24.00;95.20;;;;;;4938757;29;20886;-93
2023/07/28 05:16:10;;;;;;;1.20;1.10;;;24.00;95.20;;;;;;4938954;29;20463;-92
2023/07/28 05:18:38;;;;;;;1.10;0.90;;;24.00;95.20;;;;;;4939099;29;20489;-94
2023/07/28 05:21:04;;;;;;;1.20;1.10;;;24.00;95.30;;;;;;4939049;29;20456;-91
2023/07/28 05:23:32;;;;;;;1.10;0.90;;;24.00;95.50;;;;;;4938212;29;20515;-92
2023/07/28 05:26:00;;;;;;;1.10;0.90;;;24.00;95.40;;;;;;4938327;29;20504;-92
2023/07/28 05:28:27;;;;;;;1.00;0.90;;;23.90;95.40;;;;;;4939050;29;20488;-94
2023/07/28 05:30:54;;;;;;;1.10;1.00;;;24.00;95.50;;;;;;4940794;29;20447;-91
2023/07/28 05:33:20;;;;;;;1.10;1.00;;;24.00;95.50;;;;;;4942798;29;20495;-85
2023/07/28 05:35:48;;;;;;;1.93;1.10;;;24.00;95.50;;;;;;4938747;29;20474;-93
2023/07/28 05:38:15;;;;;;;1.20;1.10;;;24.00;95.70;;;;;;4938705;29;20453;-95
2023/07/28 05:40:42;;;;;;;1.20;1.10;;;24.00;95.70;;;;;;4941069;29;20462;-86
2023/07/28 05:43:10;;;;;;;1.03;0.93;;;24.00;95.60;;;;;;4944214;29;20443;-90
2023/07/28 05:45:37;;;;;;;1.73;1.63;;;24.00;95.50;;;;;;4943857;29;20438;-83
2023/07/28 05:51:26;;;;;;;3.23;2.43;;;23.90;97.00;;;;;;4958072;23;20533;-83
2023/07/28 05:53:53;;;;;;;3.43;2.40;;;23.90;98.40;;;;;;4948017;29;20445;-82
2023/07/28 05:56:19;;;;;;;2.33;2.13;;;23.90;99.00;;;;;;4952167;23;20499;-82
2023/07/28 05:58:48;;;;;;;2.67;2.47;;;23.90;99.20;;;;;;4946257;29;20456;-83
2023/07/28 06:01:15;;;;;;;2.57;2.37;;;23.90;99.60;;;;;;4942244;29;20453;-83
2023/07/28 06:03:42;;;;;;;2.80;2.60;;;24.00;99.90;;;;;;4952558;23;20491;-83
2023/07/28 06:06:09;;;;;;;2.30;2.10;;;23.90;99.90;;;;;;4946300;28;20450;-85
2023/07/28 06:08:36;;;;;;;2.93;2.70;;;23.90;99.90;;;;;;4945800;29;20446;-83
2023/07/28 06:11:05;;;;;;;2.80;2.00;;;23.80;99.90;;;;;;4948395;29;20448;-83
2023/07/28 06:13:32;;;;;;;2.23;2.03;;;23.80;99.90;;;;;;4935467;29;20476;-83
2023/07/28 06:16:01;;;;;;;3.10;2.20;;;23.80;99.90;;;;;;4933574;29;20445;-82
2023/07/28 06:18:28;;;;;;;2.20;2.10;;;23.80;99.90;;;;;;4938154;29;20453;-82
2023/07/28 06:20:55;;;;;;;3.27;2.97;;;23.80;99.90;;;;;;5093281;23;20454;-82
2023/07/28 06:23:22;;;;;;;2.60;2.40;;;23.80;99.90;;;;;;4973306;29;20494;-82
2023/07/28 06:25:49;;;;;;;3.23;2.40;;;23.90;99.90;;;;;;4964820;28;20461;-82
2023/07/28 06:28:17;;;;;;;2.80;2.60;;;23.80;99.90;;;;;;4965770;29;20444;-82
2023/07/28 06:30:44;;;;;;;3.87;2.53;;;23.90;99.90;;;;;;4977419;23;20489;-82
2023/07/28 06:33:12;;;;;;;3.03;2.80;;;23.90;99.90;;;;;;4959571;29;20490;-82
2023/07/28 06:35:39;;;;;;;3.53;3.23;;;23.90;99.90;;;;;;4959851;29;20873;-82
2023/07/28 06:38:06;;;;;;;3.07;2.77;;;23.80;99.90;;;;;;4960631;29;20447;-82
2023/07/28 06:40:33;;;;;;;2.67;2.47;;;23.80;99.90;;;;;;4958756;29;20454;-82
2023/07/28 06:42:59;;;;;;;3.30;3.10;;;23.80;99.90;;;;;;4967012;29;20449;-82
2023/07/28 06:45:26;;;;;;;2.50;2.30;;;23.80;99.90;;;;;;4965388;28;20438;-86
2023/07/28 06:47:53;;;;;;;2.80;2.60;;;23.80;99.90;;;;;;4968892;29;20439;-82
2023/07/28 06:50:21;;;;;;;3.00;2.80;;;23.80;99.90;;;;;;4971275;28;20478;-83
2023/07/28 06:52:49;;;;;;;4.83;3.10;;;23.80;99.90;;;;;;4973760;29;20466;-82
2023/07/28 06:55:16;;;;;;;4.13;2.77;;;23.80;99.90;;;;;;4962485;28;20477;-93
2023/07/28 06:57:43;;;;;;;2.90;2.70;;;23.80;99.90;;;;;;4949320;29;20448;-82
2023/07/28 07:00:11;;;;;;;3.10;2.47;;;23.70;99.90;;;;;;4950450;29;20462;-82
2023/07/28 07:02:38;;;;;;;6.23;2.90;;;23.80;99.90;;;;;;4950043;29;20430;-83
2023/07/28 07:05:06;;;;;;;4.37;3.20;;;23.80;99.90;;;;;;4942535;29;20447;-90
2023/07/28 07:07:34;;;;;;;3.53;3.17;;;23.90;99.90;;;;;;4937175;29;20451;-88
2023/07/28 07:10:01;;;;;;;4.43;3.00;;;23.90;99.90;;;;;;4936859;29;20962;-88
2023/07/28 07:29:59;;;;;;;3.70;3.40;;;23.90;99.90;;;;;;4778033;30;20878;-83
2023/07/28 07:32:26;;;;;;;3.53;3.23;;;23.90;99.90;;;;;;4850801;29;20490;-84
2023/07/28 07:34:54;;;;;;;3.10;2.90;;;23.90;99.90;;;;;;4859037;29;20487;-91
2023/07/28 07:37:20;;;;;;;3.10;2.80;;;23.90;99.90;;;;;;4876040;29;20975;-83
2023/07/28 07:39:47;;;;;;;2.80;2.60;;;23.90;99.90;;;;;;4896184;29;20452;-83
2023/07/28 07:42:14;;;;;;;4.73;2.40;;;23.90;99.90;;;;;;4895601;29;20455;-83
2023/07/28 07:44:41;;;;;;;2.93;2.07;;;23.90;99.90;;;;;;4895737;29;20466;-83
2023/07/28 07:47:16;;;;;;;5.40;2.30;;;23.90;99.90;;;;;;4895321;29;20472;-83
2023/07/28 07:49:43;;;;;;;1.93;1.83;;;23.90;99.90;;;;;;4896474;29;20464;-84
2023/07/28 07:52:11;;;;;;;2.97;2.30;;;23.90;99.90;;;;;;4896215;29;20476;-88
2023/07/28 07:54:38;;;;;;;1.87;1.67;;;23.90;99.90;;;;;;4896423;29;20452;-90
2023/07/28 07:57:05;;;;;;;2.00;1.90;;;23.90;99.80;;;;;;4915596;29;20888;-91
2023/07/28 07:59:32;;;;;;;1.70;1.60;;;24.00;99.60;;;;;;4936049;29;20528;-88
2023/07/28 08:02:02;;;;;;;2.30;2.10;;;24.00;99.30;;;;;;4935919;29;20456;-80
2023/07/28 08:04:31;;;;;;;7.07;2.10;;;24.00;99.30;;;;;;4935339;29;20521;-90
2023/07/28 08:06:58;;;;;;;2.17;1.97;;;24.00;99.20;;;;;;4934996;29;20443;-91
2023/07/28 08:09:25;;;;;;;2.43;2.23;;;24.00;99.00;;;;;;4935733;29;20478;-88
2023/07/28 08:11:52;;;;;;;2.83;2.43;;;24.00;99.00;;;;;;4935837;29;20441;-83
2023/07/28 08:14:19;;;;;;;2.70;2.50;;;24.00;99.10;;;;;;4935106;29;20458;-84
2023/07/28 08:16:46;;;;;;;3.20;2.63;;;24.00;99.10;;;;;;4934854;29;20444;-90
2023/07/28 08:19:13;;;;;;;2.20;2.00;;;24.00;99.20;;;;;;4935603;29;20459;-91
2023/07/28 08:21:41;;;;;;;3.50;1.63;;;24.00;99.60;;;;;;4936116;29;20533;-83
2023/07/28 08:24:08;;;;;;;2.27;2.07;;;24.10;99.10;;;;;;4935745;29;20463;-83
2023/07/28 08:26:35;;;;;;;2.27;2.07;;;24.10;99.00;;;;;;4935831;29;20485;-84
2023/07/28 08:29:01;;;;;;;1.97;1.80;;;24.10;98.90;;;;;;4935660;29;20798;-83
2023/07/28 08:31:28;;;;;;;2.07;1.87;;;24.10;98.70;;;;;;4935411;29;20483;-84
2023/07/28 08:33:55;;;;;;;3.20;2.10;;;24.10;98.60;;;;;;4935382;29;20498;-83
2023/07/28 08:36:22;;;;;;;2.33;1.50;;;24.10;98.50;;;;;;4935485;29;20459;-84
2023/07/28 08:38:50;;;;;;;2.00;1.90;;;24.10;98.50;;;;;;4935466;29;20480;-83
2023/07/28 08:41:16;;;;;;;2.00;1.87;;;24.10;98.40;;;;;;4938780;29;20455;-83
2023/07/28 08:43:43;;;;;;;1.97;1.67;;;24.10;98.60;;;;;;4939145;29;20521;-83
2023/07/28 08:46:10;;;;;;;1.53;1.43;;;24.10;98.50;;;;;;4938983;29;20447;-83
2023/07/28 08:48:37;;;;;;;2.67;1.97;;;24.10;98.50;;;;;;4939014;29;20443;-84
2023/07/28 08:51:05;;;;;;;2.10;1.97;;;24.10;98.60;;;;;;4938886;29;20787;-90
2023/07/28 08:53:32;;;;;;;2.53;2.20;;;24.10;98.50;;;;;;4938530;29;20538;-84
2023/07/28 08:56:00;;;;;;;3.40;2.53;;;24.10;98.60;;;;;;4938860;29;20455;-91
2023/07/28 08:58:27;;;;;;;2.10;1.90;;;24.10;98.60;;;;;;4938592;29;20444;-83
2023/07/28 09:00:54;;;;;;;9.10;2.10;;;24.10;98.50;;;;;;4938499;29;20450;-83
2023/07/28 09:03:22;;;;;;;4.37;1.70;;;24.10;98.40;;;;;;4938652;29;20538;-83
2023/07/28 09:05:49;;;;;;;1.70;1.60;;;24.10;98.20;;;;;;4938518;29;20817;-83
2023/07/28 09:08:17;;;;;;;2.20;2.00;;;24.10;98.20;;;;;;4938593;29;20773;-84
2023/07/28 09:10:45;;;;;;;2.07;1.80;;;24.10;98.10;;;;;;4938392;29;20448;-85
2023/07/28 09:13:14;;;;;;;3.33;1.80;;;24.10;98.00;;;;;;4938375;29;20493;-84
2023/07/28 09:15:41;;;;;;;2.07;1.53;;;24.20;98.50;;;;;;4938342;29;20446;-84
2023/07/28 09:18:10;;;;;;;2.17;1.97;;;24.10;97.90;;;;;;4938250;29;20458;-83
2023/07/28 09:20:38;;;;;;;2.10;2.00;;;24.10;97.80;;;;;;4938388;29;20450;-91
2023/07/28 09:23:07;;;;;;;3.93;2.27;;;24.10;97.80;;;;;;4938194;29;20936;-83
2023/07/28 09:25:35;;;;;;;2.03;1.60;;;24.20;97.90;;;;;;4938481;29;20451;-83
2023/07/28 09:28:02;;;;;;;2.47;1.53;;;24.20;97.90;;;;;;4938344;29;20448;-85
2023/07/28 09:30:46;;;;;;;2.13;1.80;;;24.20;98.30;;;;;;4937692;29;20487;-90
2023/07/28 09:33:13;;;;;;;2.23;1.70;;;24.20;97.90;;;;;;4938099;29;20891;-83
2023/07/28 09:35:49;;;;;;;2.50;2.10;;;24.20;97.70;;;;;;4938192;29;20454;-81
2023/07/28 09:38:16;;;;;;;2.27;2.07;;;24.20;98.20;;;;;;4937995;29;20451;-88
2023/07/28 09:40:44;;;;;;;1.93;1.83;;;24.20;97.70;;;;;;4938237;29;20439;-91
2023/07/28 09:43:12;;;;;;;2.37;2.20;;;24.20;97.70;;;;;;4937955;29;20966;-85
2023/07/28 09:45:41;;;;;;;2.30;2.10;;;24.20;97.70;;;;;;4937966;29;20446;-83
2023/07/28 09:48:11;;;;;;;2.13;2.00;;;24.20;97.60;;;;;;4937863;29;20451;-87
2023/07/28 09:50:41;;;;;;;2.10;1.90;;;24.30;97.60;;;;;;4937700;29;20523;-84
2023/07/28 09:53:10;;;;;;;1.90;1.70;;;24.30;97.50;;;;;;4937726;29;20491;-84
2023/07/28 09:55:40;;;;;;;3.20;1.70;;;24.30;97.50;;;;;;4937832;29;20487;-83
2023/07/28 09:58:10;;;;;;;3.37;1.87;;;24.30;97.40;;;;;;4937871;29;20492;-83
2023/07/28 10:00:38;;;;;;;1.80;1.70;;;24.30;97.40;;;;;;4937537;29;20449;-83
2023/07/28 10:03:06;;;;;;;1.73;1.60;;;24.30;97.40;;;;;;4937714;29;20496;-84
2023/07/28 10:05:35;;;;;;;1.77;1.67;;;24.30;97.40;;;;;;4937608;29;20890;-83
2023/07/28 10:08:03;;;;;;;2.13;1.93;;;24.30;97.50;;;;;;4937493;29;20500;-83
2023/07/28 10:10:30;;;;;;;2.53;1.77;;;24.30;97.40;;;;;;4937484;29;20539;-83
2023/07/28 10:13:00;;;;;;;1.77;1.67;;;24.30;97.50;;;;;;4937416;29;20476;-83
2023/07/28 10:15:30;;;;;;;1.70;1.47;;;24.30;97.40;;;;;;4937441;29;20448;-83
2023/07/28 10:17:59;;;;;;;2.17;1.70;;;24.30;97.60;;;;;;4937398;29;20449;-91
2023/07/28 10:20:32;;;;;;;2.30;2.10;;;24.40;97.40;;;;;;4937216;29;20544;-83
2023/07/28 10:23:07;;;;;;;2.10;1.90;;;24.30;97.40;;;;;;4937086;29;20490;-83
2023/07/28 10:25:35;;;;;;;1.83;1.73;;;24.40;97.50;;;;;;4937542;29;20448;-83
2023/07/28 10:28:03;;;;;;;1.83;1.73;;;24.50;97.60;;;;;;4936850;29;20507;-83
2023/07/28 10:30:37;;;;;;;3.33;2.00;;;24.30;97.50;;;;;;4936745;29;20489;-91
2023/07/28 10:33:04;;;;;;;3.40;1.90;;;24.40;97.60;;;;;;4936845;29;20547;-83
2023/07/28 10:35:33;;;;;;;2.40;2.20;;;24.40;97.50;;;;;;4936974;29;20469;-91
2023/07/28 10:38:34;;;;;;;1.90;1.80;;;24.30;97.40;;;;;;4936862;29;20473;-83
2023/07/28 10:41:15;;;;;;;1.90;1.80;;;24.30;97.50;;;;;;4936914;29;20446;-83
2023/07/28 10:43:42;;;;;;;1.43;1.33;;;24.30;97.60;;;;;;4937112;29;20450;-83
2023/07/28 10:46:10;;;;;;;1.90;1.80;;;24.30;97.50;;;;;;4936772;29;20443;-83
2023/07/28 10:48:39;;;;;;;2.13;2.03;;;24.30;97.60;;;;;;4936599;29;20445;-85
2023/07/28 10:51:07;;;;;;;1.80;1.70;;;24.30;97.70;;;;;;4936651;29;20981;-83
2023/07/28 10:53:34;;;;;;;1.97;1.87;;;24.30;97.80;;;;;;4936628;29;20488;-83
2023/07/28 10:56:03;;;;;;;1.90;1.80;;;24.40;97.70;;;;;;4936589;29;20445;-83
2023/07/28 10:58:30;;;;;;;1.60;1.50;;;24.30;97.80;;;;;;4936668;29;20444;-83
2023/07/28 11:00:56;;;;;;;1.83;1.73;;;24.30;97.80;;;;;;4936828;29;20443;-83
2023/07/28 11:03:24;;;;;;;1.70;1.60;;;24.30;97.70;;;;;;4936002;29;20452;-83
2023/07/28 11:05:51;;;;;;;2.03;1.93;;;24.30;97.70;;;;;;4936577;29;20457;-83
2023/07/28 11:08:19;;;;;;;1.60;1.50;;;24.30;97.60;;;;;;4936539;29;20491;-83
2023/07/28 11:10:46;;;;;;;1.87;1.77;;;24.50;97.70;;;;;;4936415;29;20444;-84
2023/07/28 11:13:14;;;;;;;1.40;1.30;;;24.40;97.70;;;;;;4936153;29;20990;-83
2023/07/28 11:15:41;;;;;;;1.97;1.73;;;24.40;97.70;;;;;;4936346;29;20444;-83
2023/07/28 11:18:09;;;;;;;2.23;1.50;;;24.40;97.60;;;;;;4936165;29;20456;-83
2023/07/28 11:20:36;;;;;;;1.70;1.60;;;24.40;97.60;;;;;;4936251;29;20526;-83
2023/07/28 11:23:06;;;;;;;1.77;1.67;;;24.40;97.70;;;;;;4936035;29;20533;-83
2023/07/28 11:25:35;;;;;;;2.10;1.90;;;24.40;97.70;;;;;;4935356;29;20941;-83
2023/07/28 11:28:05;;;;;;;1.73;1.63;;;24.40;97.70;;;;;;4936018;29;20530;-83
2023/07/28 11:30:37;;;;;;;1.60;1.50;;;24.40;97.80;;;;;;4920678;29;20486;-84
2023/07/28 11:33:04;;;;;;;1.73;1.60;;;24.40;97.80;;;;;;4918723;29;20455;-85
2023/07/28 11:35:31;;;;;;;1.80;1.70;;;24.40;97.90;;;;;;4930186;29;20538;-84
2023/07/28 11:37:58;;;;;;;1.80;1.70;;;24.40;98.00;;;;;;4935749;29;20881;-84
2023/07/28 11:40:25;;;;;;;1.80;1.70;;;24.40;98.10;;;;;;4936180;29;20801;-84
2023/07/28 11:42:55;;;;;;;2.37;1.73;;;24.40;98.00;;;;;;4935859;29;20453;-84
2023/07/28 11:45:23;;;;;;;2.20;2.00;;;24.40;98.10;;;;;;4936194;29;20458;-87
2023/07/28 11:47:56;;;;;;;1.70;1.60;;;24.40;98.30;;;;;;4936033;29;20444;-84
2023/07/28 11:50:27;;;;;;;1.80;1.70;;;24.50;98.50;;;;;;4936068;29;20457;-86
2023/07/28 11:52:54;;;;;;;1.90;1.80;;;24.50;98.70;;;;;;4936252;29;20458;-85
2023/07/28 11:55:22;;;;;;;1.90;1.70;;;24.60;98.70;;;;;;4935192;29;21064;-95
2023/07/28 11:57:50;;;;;;;1.97;1.87;;;24.50;98.50;;;;;;4935939;29;20453;-92
2023/07/28 16:34:00;;;;;;;1.20;0.93;;;24.70;98.70;;;;;;4936422;29;20535;-84
2023/07/28 16:36:27;;;;;;;1.10;1.00;;;24.70;98.70;;;;;;4938340;29;20535;-88
2023/07/28 16:38:53;;;;;;;1.10;0.90;;;24.70;98.40;;;;;;4938639;29;20437;-84
2023/07/28 16:41:20;;;;;;;1.80;1.00;;;24.70;98.50;;;;;;4938097;29;20448;-89
2023/07/28 16:43:47;;;;;;;4.60;1.07;;;24.70;98.50;;;;;;4938882;29;20463;-87
2023/07/28 16:46:13;;;;;;;1.07;0.83;;;24.70;98.60;;;;;;4938856;29;20453;-88
2023/07/28 16:48:40;;;;;;;1.07;0.90;;;24.70;98.60;;;;;;4938040;29;20460;-88
2023/07/28 16:51:08;;;;;;;1.10;1.00;;;24.70;98.70;;;;;;4937968;29;20452;-83
2023/07/28 16:53:35;;;;;;;1.30;1.10;;;24.60;98.60;;;;;;4937730;29;20448;-82
2023/07/28 16:56:02;;;;;;;1.30;1.03;;;24.60;98.70;;;;;;4937641;29;20504;-83
2023/07/28 16:58:29;;;;;;;2.07;1.10;;;24.60;98.80;;;;;;4937560;29;20463;-87
2023/07/28 17:00:55;;;;;;;1.20;1.10;;;24.70;98.90;;;;;;4936472;29;20454;-82
2023/07/28 17:03:23;;;;;;;1.00;0.90;;;24.60;98.80;;;;;;4937384;29;20940;-82
2023/07/28 17:05:50;;;;;;;1.20;1.10;;;24.60;98.80;;;;;;4937596;29;20448;-83
2023/07/28 17:08:18;;;;;;;1.40;0.97;;;24.60;99.00;;;;;;4937618;29;20451;-82
2023/07/28 17:10:45;;;;;;;1.07;0.90;;;24.60;99.00;;;;;;4938484;29;20810;-83
2023/07/28 17:13:12;;;;;;;1.20;1.10;;;24.60;99.00;;;;;;4938542;29;20928;-88
2023/07/28 17:15:39;;;;;;;1.00;0.90;;;24.60;98.90;;;;;;4938702;29;20555;-82
2023/07/28 17:18:05;;;;;;;1.07;0.97;;;24.60;99.10;;;;;;4938705;29;20454;-87
2023/07/28 17:20:32;;;;;;;1.20;1.10;;;24.60;99.30;;;;;;4938551;29;20491;-87
2023/07/28 17:22:59;;;;;;;1.20;1.10;;;24.60;98.90;;;;;;4938566;29;20445;-82
2023/07/28 17:25:27;;;;;;;1.10;0.97;;;24.60;98.90;;;;;;4938561;29;20475;-83
2023/07/28 17:27:54;;;;;;;1.83;1.03;;;24.60;98.80;;;;;;4938342;29;20448;-85
2023/07/28 17:30:21;;;;;;;1.30;1.10;;;24.60;98.90;;;;;;4938371;29;20455;-82
2023/07/28 17:32:48;;;;;;;1.50;1.00;;;24.60;98.90;;;;;;4938289;29;20445;-87
2023/07/28 17:35:15;;;;;;;1.20;1.10;;;24.60;98.90;;;;;;4937597;29;20982;-84
2023/07/28 17:37:41;;;;;;;1.10;1.00;;;24.60;99.00;;;;;;4937697;29;20451;-86
2023/07/28 17:40:09;;;;;;;1.10;1.00;;;24.60;98.80;;;;;;4937813;29;20452;-84
2023/07/28 17:42:38;;;;;;;3.93;0.90;;;24.60;99.10;;;;;;4938443;29;20481;-87
2023/07/28 17:45:07;;;;;;;1.90;1.40;;;24.60;99.00;;;;;;4938036;29;20495;-87
2023/07/28 17:47:37;;;;;;;1.47;1.37;;;24.60;99.10;;;;;;4937232;29;20448;-87